createdAt,value
2023-04-24T00:00:10.532Z,99800.41
2023-04-24T00:03:15.182Z,99795.03
2023-04-24T00:06:19.969Z,99793.25
2023-04-24T00:09:25.191Z,99794.06
2023-04-24T00:12:29.571Z,99798.28
2023-04-24T00:15:34.053Z,99799.72
2023-04-24T00:18:38.351Z,99780.47
2023-04-24T00:21:43.102Z,99760.25
2023-04-24T00:24:47.212Z,99746.59
2023-04-24T00:27:51.805Z,99741.22
2023-04-24T00:30:56.130Z,99728.41
2023-04-24T00:34:00.755Z,99729.25
2023-04-24T00:37:05.242Z,99728.16
2023-04-24T00:40:10.743Z,99721.22
2023-04-24T00:43:14.978Z,99715.97
2023-04-24T00:46:19.007Z,99721.47
2023-04-24T00:49:23.962Z,99720.81
2023-04-24T00:52:29.427Z,99710.94
2023-04-24T00:55:33.845Z,99707.75
2023-04-24T00:58:39.335Z,99705.69
2023-04-24T01:01:44.080Z,99707.53
2023-04-24T01:04:48.177Z,99704.91
2023-04-24T01:07:52.731Z,99697.00
2023-04-24T01:10:58.989Z,99694.72
2023-04-24T01:14:03.652Z,99690.16
2023-04-24T01:17:08.323Z,99688.56
2023-04-24T01:20:12.505Z,99686.91
2023-04-24T01:23:17.253Z,99684.50
2023-04-24T01:26:23.624Z,99680.41
2023-04-24T01:29:28.835Z,99690.53
2023-04-24T01:32:34.082Z,99688.72
2023-04-24T01:35:38.876Z,99680.00
2023-04-24T01:38:43.092Z,99692.09
2023-04-24T01:41:47.813Z,99685.44
2023-04-24T01:44:52.547Z,99683.53
2023-04-24T01:47:57.801Z,99686.03
2023-04-24T01:51:02.784Z,99688.34
2023-04-24T01:54:07.050Z,99686.00
2023-04-24T01:57:11.645Z,99688.50
2023-04-24T02:00:16.131Z,99685.75
2023-04-24T02:03:20.519Z,99683.13
2023-04-24T02:06:24.992Z,99680.50
2023-04-24T02:09:29.301Z,99677.88
2023-04-24T02:12:33.496Z,99685.56
2023-04-24T02:15:37.892Z,99673.25
2023-04-24T02:18:42.360Z,99667.16
2023-04-24T02:21:46.749Z,99668.06
2023-04-24T02:24:50.866Z,99666.41
2023-04-24T02:27:55.248Z,99659.47
2023-04-24T02:30:59.917Z,99656.81
2023-04-24T02:34:04.477Z,99648.44
2023-04-24T02:37:09.042Z,99656.44
2023-04-24T02:40:13.937Z,99645.75
2023-04-24T02:43:18.198Z,99653.72
2023-04-24T02:46:22.565Z,99649.88
2023-04-24T02:49:27.128Z,99641.06
2023-04-24T02:52:31.329Z,99645.47
2023-04-24T02:55:36.637Z,99648.00
2023-04-24T02:58:40.841Z,99658.50
2023-04-24T03:01:45.379Z,99644.88
2023-04-24T03:04:49.859Z,99647.81
2023-04-24T03:07:54.080Z,99649.09
2023-04-24T03:10:58.607Z,99637.13
2023-04-24T03:14:03.403Z,99627.50
2023-04-24T03:17:07.362Z,99625.53
2023-04-24T03:20:11.816Z,99626.78
2023-04-24T03:23:16.474Z,99617.56
2023-04-24T03:26:21.331Z,99623.03
2023-04-24T03:29:25.572Z,99614.72
2023-04-24T03:32:33.228Z,99611.13
2023-04-24T03:35:38.020Z,99611.13
2023-04-24T03:38:42.206Z,99612.63
2023-04-24T03:41:46.662Z,99603.75
2023-04-24T03:44:51.168Z,99612.41
2023-04-24T03:47:55.654Z,99606.94
2023-04-24T03:51:00.022Z,99607.75
2023-04-24T03:54:04.627Z,99604.53
2023-04-24T03:57:08.837Z,99613.66
2023-04-24T04:00:13.773Z,99608.63
2023-04-24T04:03:18.203Z,99600.41
2023-04-24T04:06:23.052Z,99600.41
2023-04-24T04:09:27.102Z,99598.00
2023-04-24T04:12:31.529Z,99591.59
2023-04-24T04:15:35.803Z,99587.06
2023-04-24T04:18:39.953Z,99587.38
2023-04-24T04:21:46.562Z,99577.88
2023-04-24T04:24:52.006Z,99578.41
2023-04-24T04:27:56.184Z,99572.34
2023-04-24T04:31:00.358Z,99570.84
2023-04-24T04:34:06.837Z,99573.38
2023-04-24T04:37:12.149Z,99576.09
2023-04-24T04:40:16.672Z,99566.13
2023-04-24T04:43:20.893Z,99557.91
2023-04-24T04:46:27.365Z,99563.28
2023-04-24T04:49:32.054Z,99563.28
2023-04-24T04:52:36.510Z,99562.13
2023-04-24T04:55:40.663Z,99559.38
2023-04-24T04:58:45.249Z,99561.88
2023-04-24T05:01:49.468Z,99568.00
2023-04-24T05:04:53.777Z,99560.72
2023-04-24T05:07:58.303Z,99562.63
2023-04-24T05:11:02.742Z,99568.59
2023-04-24T05:14:06.930Z,99572.81
2023-04-24T05:17:11.473Z,99574.34
2023-04-24T05:20:16.232Z,99567.19
2023-04-24T05:23:20.305Z,99572.25
2023-04-24T05:26:24.751Z,99575.72
2023-04-24T05:29:31.699Z,99570.91
2023-04-24T05:32:36.050Z,99571.84
2023-04-24T05:35:51.331Z,99574.34
2023-04-24T05:38:56.458Z,99577.06
2023-04-24T05:42:02.335Z,99563.97
2023-04-24T05:45:07.852Z,99574.34
2023-04-24T05:48:12.191Z,99582.84
2023-04-24T05:51:16.499Z,99578.28
2023-04-24T05:54:21.231Z,99573.56
2023-04-24T05:57:26.074Z,99578.81
2023-04-24T06:00:30.646Z,99574.16
2023-04-24T06:03:35.050Z,99580.84
2023-04-24T06:06:39.553Z,99575.59
2023-04-24T06:09:43.812Z,99565.84
2023-04-24T06:12:48.551Z,99573.13
2023-04-24T06:15:53.992Z,99568.41
2023-04-24T06:18:58.425Z,99562.19
2023-04-24T06:22:02.980Z,99564.75
2023-04-24T06:25:08.410Z,99563.50
2023-04-24T06:28:13.213Z,99556.19
2023-04-24T06:31:17.806Z,99551.38
2023-04-24T06:34:22.108Z,99555.34
2023-04-24T06:37:26.856Z,99551.16
2023-04-24T06:40:31.451Z,99546.78
2023-04-24T06:43:35.526Z,99543.66
2023-04-24T06:46:41.701Z,99537.69
2023-04-24T06:49:46.644Z,99554.19
2023-04-24T06:52:51.030Z,99557.75
2023-04-24T06:55:55.861Z,99543.06
2023-04-24T06:59:00.339Z,99552.28
2023-04-24T07:02:17.428Z,99548.47
2023-04-24T07:05:22.138Z,99557.91
2023-04-24T07:08:26.656Z,99554.09
2023-04-24T07:11:30.944Z,99566.13
2023-04-24T07:14:35.184Z,99552.31
2023-04-24T07:17:39.742Z,99561.16
2023-04-24T07:20:44.445Z,99542.97
2023-04-24T07:23:48.788Z,99548.25
2023-04-24T07:26:53.807Z,99545.00
2023-04-24T07:29:58.356Z,99546.56
2023-04-24T07:33:02.685Z,99553.28
2023-04-24T07:36:07.617Z,99556.41
2023-04-24T07:39:11.788Z,99562.41
2023-04-24T07:42:16.123Z,99547.69
2023-04-24T07:45:20.212Z,99561.72
2023-04-24T07:48:26.347Z,99563.38
2023-04-24T07:51:31.906Z,99572.03
2023-04-24T07:54:38.105Z,99570.69
2023-04-24T07:57:42.470Z,99579.94
2023-04-24T08:00:48.799Z,99591.16
2023-04-24T08:03:53.577Z,99591.53
2023-04-24T08:06:58.056Z,99598.34
2023-04-24T08:10:03.152Z,99599.25
2023-04-24T08:13:07.774Z,99603.84
2023-04-24T08:16:12.024Z,99605.50
2023-04-24T08:19:16.723Z,99615.44
2023-04-24T08:22:21.108Z,99617.13
2023-04-24T08:25:25.681Z,99627.03
2023-04-24T08:28:30.640Z,99624.75
2023-04-24T08:31:35.104Z,99616.97
2023-04-24T08:34:39.942Z,99625.56
2023-04-24T08:37:44.500Z,99620.31
2023-04-24T08:40:50.531Z,99615.06
2023-04-24T08:43:56.049Z,99627.28
2023-04-24T08:47:01.480Z,99627.72
2023-04-24T08:50:06.970Z,99626.75
2023-04-24T08:53:11.806Z,99625.25
2023-04-24T08:56:17.111Z,99636.06
2023-04-24T08:59:22.976Z,99639.31
2023-04-24T09:02:27.804Z,99634.38
2023-04-24T09:05:33.444Z,99645.66
2023-04-24T09:08:38.668Z,99649.47
2023-04-24T09:11:43.239Z,99642.72
2023-04-24T09:14:48.981Z,99650.34
2023-04-24T09:17:53.750Z,99655.13
2023-04-24T09:21:01.957Z,99659.47
2023-04-24T09:24:09.619Z,99660.41
2023-04-24T09:27:14.582Z,99663.28
2023-04-24T09:30:23.828Z,99657.28
2023-04-24T09:33:28.347Z,99659.97
2023-04-24T09:36:41.983Z,99669.84
2023-04-24T09:39:47.067Z,99665.53
2023-04-24T09:42:57.570Z,99663.50
2023-04-24T09:46:13.239Z,99666.78
2023-04-24T09:49:30.989Z,99664.84
2023-04-24T09:52:35.300Z,99667.19
2023-04-24T09:55:49.079Z,99669.34
2023-04-24T09:58:53.573Z,99677.22
2023-04-24T10:01:59.841Z,99681.91
2023-04-24T10:05:04.820Z,99682.31
2023-04-24T10:08:12.510Z,99688.47
2023-04-24T10:11:17.652Z,99664.44
2023-04-24T10:14:25.729Z,99668.94
2023-04-24T10:17:30.588Z,99672.03
2023-04-24T10:20:38.755Z,99675.63
2023-04-24T10:23:44.285Z,99672.50
2023-04-24T10:26:49.401Z,99669.72
2023-04-24T10:29:54.799Z,99663.63
2023-04-24T10:33:01.167Z,99667.56
2023-04-24T10:36:06.526Z,99675.25
2023-04-24T10:39:18.728Z,99675.84
2023-04-24T10:42:23.809Z,99683.25
2023-04-24T10:45:28.297Z,99680.63
2023-04-24T10:48:33.688Z,99674.16
2023-04-24T10:52:07.360Z,99679.38
2023-04-24T10:55:13.332Z,99674.31
2023-04-24T10:58:23.504Z,99685.75
2023-04-24T11:01:33.879Z,99686.97
2023-04-24T11:04:38.784Z,99685.50
2023-04-24T11:08:13.123Z,99695.06
2023-04-24T11:11:19.251Z,99704.41
2023-04-24T11:14:23.305Z,99703.47
2023-04-24T11:17:34.560Z,99704.28
2023-04-24T11:20:45.812Z,99699.16
2023-04-24T11:23:51.665Z,99700.56
2023-04-24T11:26:59.126Z,99698.97
2023-04-24T11:30:05.307Z,99695.06
2023-04-24T11:33:09.481Z,99696.09
2023-04-24T11:36:14.497Z,99698.28
2023-04-24T11:39:18.721Z,99702.41
2023-04-24T11:42:24.236Z,99698.28
2023-04-24T11:45:32.213Z,99698.66
2023-04-24T11:48:41.266Z,99689.31
2023-04-24T11:51:53.139Z,99698.44
2023-04-24T11:54:58.880Z,99692.53
2023-04-24T11:58:03.997Z,99702.69
2023-04-24T12:01:08.566Z,99706.41
2023-04-24T12:04:13.914Z,99698.13
2023-04-24T12:07:18.580Z,99698.47
2023-04-24T12:10:25.025Z,99702.06
2023-04-24T12:13:29.182Z,99709.13
2023-04-24T12:16:34.399Z,99706.00
2023-04-24T12:19:38.638Z,99711.50
2023-04-24T12:22:57.637Z,99710.25
2023-04-24T12:26:05.937Z,99713.50
2023-04-24T12:29:10.394Z,99712.03
2023-04-24T12:32:18.220Z,99712.19
2023-04-24T12:35:28.655Z,99719.25
2023-04-24T12:38:40.998Z,99702.63
2023-04-24T12:42:00.283Z,99721.97
2023-04-24T12:45:07.537Z,99713.16
2023-04-24T12:48:12.727Z,99721.47
2023-04-24T12:51:17.398Z,99733.16
2023-04-24T12:54:21.645Z,99746.63
2023-04-24T12:57:27.930Z,99761.19
2023-04-24T13:00:33.318Z,99765.81
2023-04-24T13:03:38.149Z,99777.38
2023-04-24T13:06:42.882Z,99796.31
2023-04-24T13:09:49.399Z,99799.03
2023-04-24T13:12:53.904Z,99807.13
2023-04-24T13:15:58.210Z,99818.47
2023-04-24T13:19:02.898Z,99826.03
2023-04-24T13:22:07.697Z,99832.19
2023-04-24T13:25:12.264Z,99828.34
2023-04-24T13:28:16.414Z,99836.50
2023-04-24T13:31:20.713Z,99838.94
2023-04-24T13:34:26.311Z,99845.97
2023-04-24T13:37:30.949Z,99845.03
2023-04-24T13:40:36.390Z,99849.97
2023-04-24T13:43:42.921Z,99854.00
2023-04-24T13:46:49.343Z,99853.78
2023-04-24T13:49:55.170Z,99845.19
2023-04-24T13:53:02.632Z,99853.91
2023-04-24T13:56:15.028Z,99861.97
2023-04-24T13:59:23.198Z,99854.19
2023-04-24T14:02:28.869Z,99855.44
2023-04-24T14:05:32.946Z,99862.28
2023-04-24T14:08:37.242Z,99859.66
2023-04-24T14:11:41.956Z,99861.38
2023-04-24T14:14:49.319Z,99864.56
2023-04-24T14:17:54.215Z,99872.31
2023-04-24T14:21:00.004Z,99873.38
2023-04-24T14:24:05.850Z,99877.28
2023-04-24T14:27:10.285Z,99883.13
2023-04-24T14:30:16.405Z,99882.59
2023-04-24T14:33:20.950Z,99885.03
2023-04-24T14:36:25.610Z,99892.53
2023-04-24T14:39:29.960Z,99895.91
2023-04-24T14:42:35.061Z,99897.13
2023-04-24T14:45:39.504Z,99911.25
2023-04-24T14:48:43.661Z,99910.84
2023-04-24T14:51:47.552Z,99915.31
2023-04-24T14:54:52.140Z,99918.72
2023-04-24T14:57:56.630Z,99934.59
2023-04-24T15:01:01.020Z,99932.94
2023-04-24T15:04:05.905Z,99937.16
2023-04-24T15:07:10.548Z,99949.81
2023-04-24T15:10:15.243Z,99951.69
2023-04-24T15:13:19.970Z,99967.72
2023-04-24T15:16:25.877Z,99968.22
2023-04-24T15:19:30.503Z,99981.28
2023-04-24T15:22:35.099Z,99978.72
2023-04-24T15:25:39.864Z,99991.16
2023-04-24T15:28:44.200Z,99995.47
2023-04-24T15:31:48.418Z,100008.19
2023-04-24T15:35:04.931Z,100020.91
2023-04-24T15:38:12.952Z,100014.44
2023-04-24T15:41:17.646Z,100017.34
2023-04-24T15:44:24.322Z,100034.38
2023-04-24T15:47:28.678Z,100036.56
2023-04-24T15:50:34.682Z,100042.19
2023-04-24T15:53:39.258Z,100048.69
2023-04-24T15:56:45.338Z,100052.97
2023-04-24T15:59:50.152Z,100065.06
2023-04-24T16:02:54.909Z,100065.69
2023-04-24T16:05:59.325Z,100075.09
2023-04-24T16:09:03.982Z,100074.31
2023-04-24T16:12:10.408Z,100085.06
2023-04-24T16:15:15.037Z,100083.31
2023-04-24T16:18:19.885Z,100091.38
2023-04-24T16:21:24.665Z,100087.84
2023-04-24T16:24:29.722Z,100095.97
2023-04-24T16:27:34.583Z,100101.88
2023-04-24T16:30:42.735Z,100103.03
2023-04-24T16:33:53.551Z,100107.13
2023-04-24T16:36:59.121Z,100102.94
2023-04-24T16:40:10.477Z,100104.69
2023-04-24T16:43:15.571Z,100106.16
2023-04-24T16:46:20.044Z,100108.47
2023-04-24T16:49:24.818Z,100110.88
2023-04-24T16:52:29.093Z,100104.63
2023-04-24T16:55:33.396Z,100108.53
2023-04-24T16:58:37.853Z,100112.44
2023-04-24T17:01:42.569Z,100114.91
2023-04-24T17:04:48.131Z,100120.97
2023-04-24T17:07:52.796Z,100121.06
2023-04-24T17:10:56.720Z,100119.06
2023-04-24T17:14:00.951Z,100115.47
2023-04-24T17:17:05.761Z,100121.47
2023-04-24T17:20:21.242Z,100116.22
2023-04-24T17:23:26.797Z,100118.16
2023-04-24T17:26:32.397Z,100118.78
2023-04-24T17:29:36.757Z,100118.47
2023-04-24T17:32:41.656Z,100116.75
2023-04-24T17:35:47.328Z,100121.84
2023-04-24T17:38:51.907Z,100118.16
2023-04-24T17:41:56.548Z,100127.69
2023-04-24T17:45:00.810Z,100123.56
2023-04-24T17:48:05.295Z,100126.69
2023-04-24T17:51:09.858Z,100122.31
2023-04-24T17:54:15.454Z,100123.56
2023-04-24T17:57:21.401Z,100119.00
2023-04-24T18:00:25.682Z,100118.34
2023-04-24T18:03:29.861Z,100117.53
2023-04-24T18:06:34.522Z,100115.69
2023-04-24T18:09:38.951Z,100122.28
2023-04-24T18:12:43.351Z,100117.06
2023-04-24T18:15:47.264Z,100121.75
2023-04-24T18:18:51.406Z,100119.84
2023-04-24T18:21:56.246Z,100122.78
2023-04-24T18:25:01.222Z,100122.63
2023-04-24T18:28:05.768Z,100121.84
2023-04-24T18:31:10.131Z,100125.06
2023-04-24T18:34:14.136Z,100126.59
2023-04-24T18:37:18.554Z,100123.22
2023-04-24T18:40:23.371Z,100132.91
2023-04-24T18:43:27.693Z,100128.06
2023-04-24T18:46:37.786Z,100130.94
2023-04-24T18:49:42.668Z,100138.59
2023-04-24T18:52:46.969Z,100136.59
2023-04-24T18:55:51.444Z,100133.78
2023-04-24T18:58:56.035Z,100131.78
2023-04-24T19:02:00.551Z,100140.75
2023-04-24T19:05:06.034Z,100143.34
2023-04-24T19:08:10.642Z,100141.47
2023-04-24T19:11:15.011Z,100145.66
2023-04-24T19:14:19.424Z,100138.69
2023-04-24T19:17:25.170Z,100141.25
2023-04-24T19:20:30.043Z,100151.53
2023-04-24T19:23:36.576Z,100154.94
2023-04-24T19:26:41.016Z,100156.31
2023-04-24T19:29:46.026Z,100159.06
2023-04-24T19:32:50.057Z,100163.84
2023-04-24T19:35:54.390Z,100155.91
2023-04-24T19:38:58.841Z,100163.97
2023-04-24T19:42:07.376Z,100162.31
2023-04-24T19:45:13.182Z,100159.28
2023-04-24T19:48:18.101Z,100161.22
2023-04-24T19:51:22.666Z,100167.13
2023-04-24T19:54:27.455Z,100162.69
2023-04-24T19:57:31.804Z,100162.44
2023-04-24T20:00:36.163Z,100159.28
2023-04-24T20:03:40.977Z,100166.06
2023-04-24T20:06:45.854Z,100166.16
2023-04-24T20:09:50.032Z,100164.91
2023-04-24T20:12:55.267Z,100156.44
2023-04-24T20:16:00.349Z,100153.91
2023-04-24T20:19:04.713Z,100159.22
2023-04-24T20:22:12.491Z,100153.81
2023-04-24T20:25:17.528Z,100161.66
2023-04-24T20:28:21.588Z,100162.59
2023-04-24T20:31:25.962Z,100162.59
2023-04-24T20:34:30.484Z,100156.44
2023-04-24T20:37:35.105Z,100166.41
2023-04-24T20:40:53.845Z,100167.84
2023-04-24T20:44:02.273Z,100173.91
2023-04-24T20:47:06.639Z,100174.91
2023-04-24T20:50:11.841Z,100178.91
2023-04-24T20:53:16.007Z,100171.22
2023-04-24T20:56:21.370Z,100178.28
2023-04-24T20:59:26.270Z,100179.66
2023-04-24T21:02:30.907Z,100189.97
2023-04-24T21:05:36.162Z,100184.75
2023-04-24T21:08:40.439Z,100189.00
2023-04-24T21:11:44.793Z,100191.75
2023-04-24T21:14:51.237Z,100198.44
2023-04-24T21:17:56.500Z,100196.44
2023-04-24T21:21:01.085Z,100198.75
2023-04-24T21:24:05.660Z,100211.22
2023-04-24T21:27:10.266Z,100208.47
2023-04-24T21:30:14.799Z,100205.22
2023-04-24T21:33:18.979Z,100205.09
2023-04-24T21:36:23.157Z,100215.69
2023-04-24T21:39:27.640Z,100212.06
2023-04-24T21:42:31.710Z,100216.75
2023-04-24T21:45:36.663Z,100213.06
2023-04-24T21:48:41.178Z,100220.84
2023-04-24T21:51:45.682Z,100220.09
2023-04-24T21:54:50.241Z,100223.22
2023-04-24T21:57:54.848Z,100228.16
2023-04-24T22:00:59.205Z,100226.59
2023-04-24T22:04:04.500Z,100232.19
2023-04-24T22:07:09.182Z,100239.19
2023-04-24T22:10:15.507Z,100237.47
2023-04-24T22:13:20.164Z,100240.75
2023-04-24T22:16:24.610Z,100237.34
2023-04-24T22:19:28.886Z,100248.34
2023-04-24T22:22:35.035Z,100243.13
2023-04-24T22:25:39.339Z,100249.50
2023-04-24T22:28:43.758Z,100256.44
2023-04-24T22:31:49.074Z,100243.94
2023-04-24T22:34:54.031Z,100243.31
2023-04-24T22:37:59.288Z,100248.41
2023-04-24T22:41:03.500Z,100245.59
2023-04-24T22:44:07.871Z,100249.72
2023-04-24T22:47:12.207Z,100255.47
2023-04-24T22:50:16.879Z,100265.00
2023-04-24T22:53:21.605Z,100261.97
2023-04-24T22:56:26.064Z,100259.28
2023-04-24T22:59:30.373Z,100272.41
2023-04-24T23:02:34.924Z,100268.88
2023-04-24T23:05:39.400Z,100276.03
2023-04-24T23:08:45.650Z,100261.25
2023-04-24T23:11:50.204Z,100255.03
2023-04-24T23:14:54.703Z,100257.84
2023-04-24T23:17:59.021Z,100258.41
2023-04-24T23:21:03.990Z,100261.22
2023-04-24T23:24:08.653Z,100258.13
2023-04-24T23:27:13.147Z,100248.81
2023-04-24T23:30:17.153Z,100245.50
2023-04-24T23:33:22.305Z,100247.69
2023-04-24T23:36:27.220Z,100242.16
2023-04-24T23:39:32.614Z,100235.97
2023-04-24T23:42:37.225Z,100240.34
2023-04-24T23:45:41.693Z,100237.22
2023-04-24T23:48:46.372Z,100232.06
2023-04-24T23:51:52.184Z,100232.66
2023-04-24T23:54:56.444Z,100232.97
2023-04-24T23:58:00.750Z,100225.91
